Time;durP1;ratioP1;P1;durP2;ratioP2;P2;SDS_P1;SDS_P2;PMS_P1;PMS_P2;Temp;Humidity;BMP_temperature;BMP_pressure;BME280_temperature;BME280_humidity;BME280_pressure;Samples;Min_cycle;Max_cycle;Signal;HPM_P1;HPM_P2
2021/01/11 00:00:56;;;;;;;17.20;9.07;;;;;;;-4.11;100.00;101489.78;5046947;28;20462;-76
2021/01/11 00:03:22;;;;;;;17.50;9.23;;;;;;;-4.07;100.00;101480.59;5045277;28;20212;-75
2021/01/11 00:05:48;;;;;;;19.23;9.80;;;;;;;-4.08;100.00;101479.72;5049016;28;20846;-75
2021/01/11 00:08:14;;;;;;;19.97;9.30;;;;;;;-4.08;100.00;101477.19;5046943;28;20200;-76
2021/01/11 00:10:40;;;;;;;20.47;9.70;;;;;;;-4.07;100.00;101472.94;5048120;28;20472;-76
2021/01/11 00:13:06;;;;;;;24.80;10.53;;;;;;;-4.06;100.00;101480.66;5045569;28;20216;-76
2021/01/11 00:15:32;;;;;;;21.43;10.80;;;;;;;-4.04;100.00;101478.19;5046859;28;20370;-76
2021/01/11 00:17:58;;;;;;;19.03;9.80;;;;;;;-4.05;100.00;101471.34;5047601;28;20690;-76
2021/01/11 00:20:24;;;;;;;22.03;10.53;;;;;;;-4.03;100.00;101469.75;5048546;28;20209;-76
2021/01/11 00:22:51;;;;;;;17.10;9.00;;;;;;;-4.03;100.00;101473.19;5048466;28;20583;-75
2021/01/11 00:25:17;;;;;;;20.43;10.17;;;;;;;-4.05;100.00;101467.13;5049253;28;20463;-76
2021/01/11 00:27:43;;;;;;;24.17;10.63;;;;;;;-4.03;100.00;101467.19;5046306;28;20546;-76
2021/01/11 00:30:10;;;;;;;20.20;9.73;;;;;;;-4.04;100.00;101462.91;5046027;28;20487;-75
2021/01/11 00:32:37;;;;;;;19.07;10.40;;;;;;;-4.04;100.00;101470.56;5047325;28;20224;-75
2021/01/11 00:35:04;;;;;;;21.43;9.57;;;;;;;-4.07;100.00;101468.72;5042752;28;20502;-75
2021/01/11 00:37:30;;;;;;;21.37;10.80;;;;;;;-4.09;100.00;101460.13;5047538;28;20450;-75
2021/01/11 00:39:57;;;;;;;18.87;10.57;;;;;;;-4.12;100.00;101465.09;5045760;28;21073;-76
2021/01/11 00:42:23;;;;;;;20.37;10.20;;;;;;;-4.13;100.00;101465.91;5047042;28;20197;-75
2021/01/11 00:44:49;;;;;;;20.60;10.13;;;;;;;-4.16;100.00;101462.34;5044742;28;20462;-75
2021/01/11 00:47:15;;;;;;;21.33;10.53;;;;;;;-4.16;100.00;101464.88;5046579;28;20243;-75
2021/01/11 00:49:43;;;;;;;20.57;9.77;;;;;;;-4.15;100.00;101456.44;5047062;28;21060;-76
2021/01/11 00:52:09;;;;;;;28.63;10.17;;;;;;;-4.20;100.00;101459.63;5045383;28;20464;-75
2021/01/11 00:54:35;;;;;;;20.53;11.00;;;;;;;-4.24;100.00;101464.50;5047813;28;20960;-75
2021/01/11 00:57:08;;;;;;;21.33;10.80;;;;;;;-4.25;100.00;101467.88;5046748;28;20459;-76
2021/01/11 00:59:47;;;;;;;21.83;9.83;;;;;;;-4.28;100.00;101466.03;5046589;28;20997;-75
2021/01/11 01:02:17;;;;;;;22.83;11.17;;;;;;;-4.32;100.00;101469.25;5059749;28;20451;-76
2021/01/11 01:04:43;;;;;;;19.93;9.50;;;;;;;-4.33;100.00;101470.03;5047942;28;20502;-75
2021/01/11 01:07:08;;;;;;;19.70;9.90;;;;;;;-4.35;100.00;101468.22;5045885;28;20215;-75
2021/01/11 01:09:34;;;;;;;19.13;9.93;;;;;;;-4.36;100.00;101469.91;5046185;28;20225;-76
2021/01/11 01:12:00;;;;;;;21.10;10.83;;;;;;;-4.38;100.00;101472.38;5045825;28;20567;-76
2021/01/11 01:14:27;;;;;;;18.57;9.63;;;;;;;-4.37;100.00;101475.78;5047974;28;20201;-76
2021/01/11 01:16:53;;;;;;;23.27;11.47;;;;;;;-4.38;100.00;101476.56;5044986;28;20691;-75
2021/01/11 01:19:19;;;;;;;18.70;9.70;;;;;;;-4.38;100.00;101474.94;5047341;28;20466;-75
2021/01/11 01:21:45;;;;;;;21.40;10.50;;;;;;;-4.39;100.00;101478.25;5046229;28;20196;-76
2021/01/11 01:24:11;;;;;;;21.00;10.07;;;;;;;-4.38;100.00;101474.03;5040436;28;20210;-76
2021/01/11 01:26:37;;;;;;;19.20;10.37;;;;;;;-4.38;100.00;101472.38;5046717;28;20219;-75
2021/01/11 01:29:03;;;;;;;23.27;11.07;;;;;;;-4.41;100.00;101474.78;5043704;28;20221;-76
2021/01/11 01:31:29;;;;;;;17.60;9.33;;;;;;;-4.41;100.00;101471.34;5045882;28;20829;-75
2021/01/11 01:33:55;;;;;;;19.80;10.33;;;;;;;-4.44;100.00;101464.44;5047059;28;20275;-75
2021/01/11 01:36:21;;;;;;;19.87;9.93;;;;;;;-4.45;100.00;101464.34;5049447;28;20488;-75
2021/01/11 01:38:47;;;;;;;21.50;10.20;;;;;;;-4.47;100.00;101450.69;5048228;28;20298;-76
2021/01/11 01:41:14;;;;;;;21.53;9.90;;;;;;;-4.48;100.00;101447.28;5044207;28;20826;-75
2021/01/11 01:43:40;;;;;;;20.87;9.97;;;;;;;-4.51;100.00;101444.56;5046627;28;20462;-76
2021/01/11 01:46:07;;;;;;;23.67;10.47;;;;;;;-4.47;100.00;101448.13;5046344;28;20541;-75
2021/01/11 01:48:34;;;;;;;23.20;11.00;;;;;;;-4.49;100.00;101442.97;5045464;28;20843;-76
2021/01/11 01:51:00;;;;;;;18.53;8.50;;;;;;;-4.49;100.00;101432.78;5047314;28;20589;-75
2021/01/11 01:53:26;;;;;;;19.73;10.13;;;;;;;-4.47;100.00;101433.72;5046966;28;20812;-75
2021/01/11 01:55:53;;;;;;;18.93;8.73;;;;;;;-4.50;100.00;101437.78;5047395;28;20203;-75
2021/01/11 01:58:20;;;;;;;23.03;10.40;;;;;;;-4.52;100.00;101445.38;5045026;28;20557;-76
2021/01/11 02:00:47;;;;;;;16.93;9.87;;;;;;;-4.50;100.00;101445.44;5047253;28;20455;-75
2021/01/11 02:03:13;;;;;;;20.43;9.60;;;;;;;-4.51;100.00;101436.94;5044146;28;20461;-76
2021/01/11 02:05:39;;;;;;;17.17;9.40;;;;;;;-4.50;100.00;101440.34;5047927;28;20517;-76
2021/01/11 02:08:10;;;;;;;20.47;9.37;;;;;;;-4.54;100.00;101436.78;5043601;28;20201;-75
2021/01/11 02:10:49;;;;;;;18.07;9.40;;;;;;;-4.53;100.00;101438.53;5072113;28;20465;-77
2021/01/11 02:13:31;;;;;;;20.07;9.80;;;;;;;-4.57;100.00;101452.78;5042972;28;20496;-77
2021/01/11 02:16:05;;;;;;;18.53;9.43;;;;;;;-4.55;100.00;101450.31;5045974;28;20532;-76
2021/01/11 02:18:49;;;;;;;17.67;8.90;;;;;;;-4.54;100.00;101451.19;5047867;28;20481;-76
2021/01/11 02:21:40;;;;;;;21.20;10.17;;;;;;;-4.55;100.00;101450.31;5050011;28;20455;-76
2021/01/11 02:24:33;;;;;;;26.07;10.87;;;;;;;-4.57;100.00;101441.75;5046648;28;20515;-75
2021/01/11 02:27:12;;;;;;;15.87;8.87;;;;;;;-4.62;100.00;101448.28;5045763;28;20964;-75
2021/01/11 02:30:08;;;;;;;22.17;9.93;;;;;;;-4.68;100.00;101443.75;5044609;28;20531;-75
2021/01/11 02:32:38;;;;;;;18.20;9.10;;;;;;;-4.70;100.00;101437.72;5049971;28;20495;-76
2021/01/11 02:35:08;;;;;;;21.57;10.43;;;;;;;-4.75;100.00;101441.69;5047817;28;20464;-76
2021/01/11 02:37:37;;;;;;;19.07;9.63;;;;;;;-4.77;100.00;101441.66;5046712;28;20476;-76
2021/01/11 02:40:08;;;;;;;20.67;9.90;;;;;;;-4.79;100.00;101440.69;5046264;28;20470;-75
2021/01/11 02:42:34;;;;;;;17.47;8.57;;;;;;;-4.79;100.00;101440.69;5049733;28;20457;-75
2021/01/11 02:45:02;;;;;;;21.63;10.47;;;;;;;-4.81;100.00;101443.97;5049045;28;20450;-76
2021/01/11 02:47:35;;;;;;;22.37;9.50;;;;;;;-4.82;100.00;101442.19;5051097;28;20508;-75
2021/01/11 02:50:02;;;;;;;16.20;9.10;;;;;;;-4.85;100.00;101437.84;5063903;28;20477;-76
2021/01/11 02:52:39;;;;;;;18.77;9.53;;;;;;;-4.86;100.00;101430.13;5047810;28;20510;-76
2021/01/11 02:55:11;;;;;;;19.87;9.63;;;;;;;-4.85;100.00;101431.91;5047845;28;20457;-75
2021/01/11 02:57:44;;;;;;;15.50;7.87;;;;;;;-4.85;100.00;101427.66;5047232;28;20865;-75
2021/01/11 03:00:13;;;;;;;17.73;9.13;;;;;;;-4.83;100.00;101427.75;5047160;28;20477;-75
2021/01/11 03:02:45;;;;;;;17.63;9.67;;;;;;;-4.89;100.00;101430.88;5049029;28;20461;-75
2021/01/11 03:05:12;;;;;;;15.77;8.30;;;;;;;-4.89;100.00;101425.78;5047043;28;20450;-75
2021/01/11 03:07:39;;;;;;;16.97;8.87;;;;;;;-4.89;100.00;101433.41;5062145;28;20824;-75
2021/01/11 03:10:06;;;;;;;18.63;9.13;;;;;;;-4.95;100.00;101421.25;5049041;28;20808;-75
2021/01/11 03:12:32;;;;;;;17.50;9.40;;;;;;;-4.99;100.00;101421.91;5045922;28;20465;-75
2021/01/11 03:14:58;;;;;;;19.97;8.97;;;;;;;-4.98;100.00;101418.56;5049259;28;20454;-75
2021/01/11 03:17:24;;;;;;;19.97;9.37;;;;;;;-4.96;100.00;101410.97;5045129;28;20192;-75
2021/01/11 03:19:50;;;;;;;18.73;9.20;;;;;;;-4.96;100.00;101409.34;5048391;28;20226;-75
2021/01/11 03:22:16;;;;;;;19.57;8.90;;;;;;;-4.91;100.00;101403.59;5044833;28;20974;-75
2021/01/11 03:24:42;;;;;;;21.20;10.33;;;;;;;-4.91;100.00;101407.00;5050050;28;20262;-75
2021/01/11 03:27:08;;;;;;;18.70;8.97;;;;;;;-4.91;100.00;101401.91;5045379;28;20216;-75
2021/01/11 03:29:33;;;;;;;13.67;7.97;;;;;;;-4.89;100.00;101399.44;5049365;28;20234;-75
2021/01/11 03:31:59;;;;;;;18.77;9.30;;;;;;;-4.91;100.00;101398.50;5049375;28;20231;-75
2021/01/11 03:34:26;;;;;;;17.30;8.70;;;;;;;-4.94;100.00;101399.25;5046328;28;20195;-75
2021/01/11 03:36:52;;;;;;;18.47;9.23;;;;;;;-4.96;100.00;101394.06;5066424;28;20208;-75
2021/01/11 03:39:18;;;;;;;16.70;8.33;;;;;;;-4.95;100.00;101388.16;5049643;28;20485;-75
2021/01/11 03:41:46;;;;;;;18.30;9.20;;;;;;;-4.91;100.00;101389.19;5065624;28;20191;-75
2021/01/11 03:44:12;;;;;;;16.23;7.77;;;;;;;-4.90;100.00;101385.00;5048313;28;20193;-76
2021/01/11 03:46:38;;;;;;;14.90;9.13;;;;;;;-4.93;100.00;101382.28;5048430;28;20462;-76
2021/01/11 03:49:04;;;;;;;16.53;8.60;;;;;;;-4.97;100.00;101373.66;5050382;28;20470;-76
2021/01/11 03:51:31;;;;;;;17.37;8.63;;;;;;;-4.95;100.00;101380.53;5051098;28;20216;-74
2021/01/11 03:53:56;;;;;;;16.43;8.33;;;;;;;-4.93;100.00;101374.66;5047902;28;20215;-77
2021/01/11 03:56:22;;;;;;;17.17;8.97;;;;;;;-4.94;100.00;101368.72;5049886;28;21015;-77
2021/01/11 03:58:48;;;;;;;15.63;8.53;;;;;;;-4.95;100.00;101375.44;5044585;28;20224;-76
2021/01/11 04:01:14;;;;;;;16.37;8.50;;;;;;;-4.92;100.00;101373.84;5049106;28;20472;-75
2021/01/11 04:03:40;;;;;;;20.13;9.47;;;;;;;-4.92;100.00;101367.13;5042389;28;20214;-78
2021/01/11 04:06:07;;;;;;;17.33;8.70;;;;;;;-4.96;100.00;101366.09;5049478;28;20450;-75
2021/01/11 04:08:34;;;;;;;16.30;9.10;;;;;;;-4.93;100.00;101367.03;5048274;28;20238;-75
2021/01/11 04:11:00;;;;;;;18.27;9.27;;;;;;;-4.95;100.00;101362.72;5044289;28;20536;-75
2021/01/11 04:13:26;;;;;;;20.97;10.07;;;;;;;-4.91;100.00;101357.81;5046730;28;20455;-77
2021/01/11 04:15:52;;;;;;;22.83;8.90;;;;;;;-4.89;100.00;101356.19;5049293;28;20694;-77
2021/01/11 04:18:18;;;;;;;17.60;9.37;;;;;;;-4.92;100.00;101354.38;5046419;28;20192;-76
2021/01/11 04:20:44;;;;;;;20.83;9.27;;;;;;;-4.92;100.00;101346.75;5038380;28;20222;-76
2021/01/11 04:23:09;;;;;;;16.53;9.33;;;;;;;-4.91;100.00;101348.47;5047292;28;20685;-78
2021/01/11 04:25:36;;;;;;;14.80;8.33;;;;;;;-4.89;100.00;101346.03;5048389;28;20699;-77
2021/01/11 04:28:04;;;;;;;14.10;7.70;;;;;;;-4.85;100.00;101345.38;5049716;28;20262;-76
2021/01/11 04:30:30;;;;;;;15.57;8.50;;;;;;;-4.83;100.00;101346.31;5047514;28;20566;-76
2021/01/11 04:32:57;;;;;;;16.90;9.23;;;;;;;-4.76;100.00;101338.19;5046284;28;20499;-75
2021/01/11 04:35:27;;;;;;;17.63;8.87;;;;;;;-4.73;100.00;101342.53;5044797;28;20453;-75
2021/01/11 04:37:53;;;;;;;19.17;10.00;;;;;;;-4.65;100.00;101346.31;5048296;28;20934;-75
2021/01/11 04:40:19;;;;;;;21.80;9.33;;;;;;;-4.61;100.00;101351.66;5041716;28;20486;-75
2021/01/11 04:42:54;;;;;;;18.27;10.33;;;;;;;-4.52;100.00;101348.66;5045699;28;20463;-75
2021/01/11 04:45:21;;;;;;;17.27;8.87;;;;;;;-4.44;100.00;101337.13;5044939;28;20461;-75
2021/01/11 04:47:52;;;;;;;16.40;9.43;;;;;;;-4.37;100.00;101339.16;5049059;28;20963;-75
2021/01/11 04:50:19;;;;;;;19.00;8.97;;;;;;;-4.33;100.00;101331.66;5047495;28;20560;-76
2021/01/11 04:52:45;;;;;;;16.63;8.43;;;;;;;-4.28;100.00;101332.75;5042151;28;20462;-75
2021/01/11 04:55:12;;;;;;;21.30;9.37;;;;;;;-4.25;100.00;101336.31;5046245;28;20449;-75
2021/01/11 04:57:50;;;;;;;18.67;9.90;;;;;;;-4.20;100.00;101334.84;5042563;28;20454;-75
2021/01/11 05:00:19;;;;;;;16.73;9.10;;;;;;;-4.16;100.00;101335.84;5044356;28;21457;-76
2021/01/11 05:02:45;;;;;;;20.43;9.23;;;;;;;-4.10;100.00;101335.25;5041957;28;20450;-76
2021/01/11 05:05:12;;;;;;;18.47;9.17;;;;;;;-4.09;100.00;101332.78;5044956;28;20538;-75
2021/01/11 05:07:39;;;;;;;20.40;10.17;;;;;;;-4.05;100.00;101332.09;5042747;28;20473;-76
2021/01/11 05:10:06;;;;;;;19.93;9.40;;;;;;;-4.00;100.00;101337.41;5043127;28;20476;-76
2021/01/11 05:12:32;;;;;;;20.93;9.60;;;;;;;-3.98;100.00;101330.69;5046762;28;20946;-76
2021/01/11 05:15:17;;;;;;;14.10;8.47;;;;;;;-3.95;100.00;101338.50;5045008;28;20566;-76
2021/01/11 05:17:44;;;;;;;18.97;8.37;;;;;;;-3.91;100.00;101334.41;5042806;28;20246;-76
2021/01/11 05:20:12;;;;;;;13.07;7.80;;;;;;;-3.89;100.00;101338.75;5061531;28;20472;-76
2021/01/11 05:22:39;;;;;;;20.80;9.57;;;;;;;-3.86;100.00;101338.03;5044023;28;20462;-76
2021/01/11 05:25:16;;;;;;;19.03;9.90;;;;;;;-3.84;100.00;101338.97;5043652;28;20520;-76
2021/01/11 05:27:44;;;;;;;15.63;8.57;;;;;;;-3.85;100.00;101333.00;5039667;28;20471;-76
2021/01/11 05:30:28;;;;;;;15.83;8.53;;;;;;;-3.79;100.00;101334.94;5046079;28;21050;-76
2021/01/11 05:32:55;;;;;;;13.50;7.73;;;;;;;-3.81;99.73;101328.91;5045286;28;20456;-76
2021/01/11 05:35:22;;;;;;;20.43;9.17;;;;;;;-3.78;99.51;101328.16;5046772;28;20553;-76
2021/01/11 05:37:47;;;;;;;17.20;9.03;;;;;;;-3.76;99.26;101327.44;5043629;28;20551;-75
2021/01/11 05:40:15;;;;;;;19.50;9.27;;;;;;;-3.74;99.09;101327.50;5047022;28;20562;-75
2021/01/11 05:42:43;;;;;;;15.93;8.73;;;;;;;-3.74;99.02;101330.91;5046468;28;20645;-75
2021/01/11 05:45:14;;;;;;;16.43;8.93;;;;;;;-3.72;99.23;101325.88;5044612;28;20467;-75
2021/01/11 05:47:59;;;;;;;14.13;7.97;;;;;;;-3.70;98.90;101321.72;5043689;28;20469;-75
2021/01/11 05:50:27;;;;;;;17.83;8.77;;;;;;;-3.69;98.45;101321.78;5043967;28;20500;-75
2021/01/11 05:52:53;;;;;;;16.13;8.43;;;;;;;-3.69;98.51;101319.25;5046361;28;20461;-75
2021/01/11 05:55:27;;;;;;;18.33;8.30;;;;;;;-3.67;98.54;101315.06;5049170;28;20905;-75
2021/01/11 05:57:59;;;;;;;17.87;8.77;;;;;;;-3.65;98.19;101313.44;5045781;28;20254;-75
2021/01/11 06:00:28;;;;;;;17.67;8.20;;;;;;;-3.63;98.21;101316.94;5046924;28;20479;-75
2021/01/11 06:02:54;;;;;;;15.57;8.53;;;;;;;-3.63;97.63;101311.84;5049834;28;20786;-75
2021/01/11 06:05:22;;;;;;;14.60;8.20;;;;;;;-3.63;97.33;101316.94;5048806;28;20830;-75
2021/01/11 06:07:48;;;;;;;18.50;8.60;;;;;;;-3.59;96.89;101314.53;5051309;28;20465;-75
2021/01/11 06:10:15;;;;;;;19.23;9.63;;;;;;;-3.57;97.22;101320.56;5046285;28;20483;-75
2021/01/11 06:12:44;;;;;;;17.43;8.63;;;;;;;-3.57;97.04;101315.44;5050985;28;20431;-75
2021/01/11 06:15:12;;;;;;;18.27;8.53;;;;;;;-3.54;96.83;101318.13;5049373;28;20992;-75
2021/01/11 06:17:40;;;;;;;14.70;7.53;;;;;;;-3.54;96.61;101311.34;5053604;28;20486;-74
2021/01/11 06:20:07;;;;;;;13.97;7.20;;;;;;;-3.53;96.47;101314.81;5049965;28;20474;-75
2021/01/11 06:23:03;;;;;;;16.13;8.30;;;;;;;-3.52;96.31;101319.06;5047083;28;20456;-75
2021/01/11 06:25:34;;;;;;;12.60;7.30;;;;;;;-3.53;95.71;101314.81;5041610;28;20962;-74
2021/01/11 06:28:01;;;;;;;12.13;7.20;;;;;;;-3.51;96.36;101318.28;5047089;28;20457;-75
2021/01/11 06:30:33;;;;;;;12.97;7.03;;;;;;;-3.50;96.46;101320.91;5044584;28;20491;-75
2021/01/11 06:32:59;;;;;;;15.70;8.13;;;;;;;-3.46;97.05;101324.44;5047130;28;20475;-75
2021/01/11 06:35:29;;;;;;;13.93;7.77;;;;;;;-3.48;96.24;101315.88;5048020;28;20807;-75
2021/01/11 06:38:07;;;;;;;15.50;8.17;;;;;;;-3.49;95.85;101317.53;5047946;28;20458;-75
2021/01/11 06:40:33;;;;;;;14.30;7.60;;;;;;;-3.47;95.57;101315.91;5042373;28;20490;-74
2021/01/11 06:43:00;;;;;;;13.87;7.63;;;;;;;-3.47;95.58;101315.03;5047302;28;20455;-75
2021/01/11 06:45:34;;;;;;;13.53;7.50;;;;;;;-3.45;95.68;101313.41;5045392;28;21263;-75
2021/01/11 06:48:02;;;;;;;12.87;6.87;;;;;;;-3.43;95.43;101322.00;5049151;28;20455;-74
2021/01/11 06:50:30;;;;;;;13.37;7.80;;;;;;;-3.44;95.25;101318.59;5047046;28;20495;-74
2021/01/11 06:53:01;;;;;;;12.00;6.93;;;;;;;-3.40;96.22;101318.72;5049236;28;20458;-77
2021/01/11 06:55:29;;;;;;;13.13;6.50;;;;;;;-3.40;95.78;101313.63;5048663;28;20993;-74
2021/01/11 06:57:57;;;;;;;12.90;6.40;;;;;;;-3.40;95.76;101322.13;5046722;28;20461;-74
2021/01/11 07:00:30;;;;;;;13.03;7.30;;;;;;;-3.37;96.07;101317.16;5046574;28;20962;-74
2021/01/11 07:02:56;;;;;;;13.30;8.27;;;;;;;-3.37;95.80;101327.38;5046105;28;20465;-76
2021/01/11 07:05:39;;;;;;;14.90;8.60;;;;;;;-3.35;95.98;101328.31;5049720;28;20448;-76
2021/01/11 07:08:06;;;;;;;11.93;7.40;;;;;;;-3.33;95.59;101321.56;5043397;28;20454;-76
2021/01/11 07:10:35;;;;;;;18.03;9.00;;;;;;;-3.32;95.73;101319.94;5046765;28;21100;-77
2021/01/11 07:13:23;;;;;;;17.33;9.50;;;;;;;-3.31;96.11;101309.75;5047719;28;20460;-75
2021/01/11 07:16:19;;;;;;;12.67;7.73;;;;;;;-3.29;95.85;101312.38;5044310;28;20996;-76
2021/01/11 07:18:49;;;;;;;13.97;7.00;;;;;;;-3.27;95.64;101314.19;5048838;28;20507;-76
2021/01/11 07:21:17;;;;;;;15.60;8.47;;;;;;;-3.27;95.49;101308.22;5045949;28;20465;-77
2021/01/11 07:23:43;;;;;;;12.83;6.87;;;;;;;-3.25;95.49;101307.47;5044828;28;20449;-76
2021/01/11 07:26:15;;;;;;;13.57;7.80;;;;;;;-3.22;95.70;101314.38;5046762;28;20984;-76
2021/01/11 07:28:53;;;;;;;13.07;7.33;;;;;;;-3.20;95.57;101319.53;5047160;28;20913;-75
2021/01/11 07:31:21;;;;;;;14.57;8.10;;;;;;;-3.20;95.29;101312.78;5046432;28;20481;-75
2021/01/11 07:33:52;;;;;;;17.93;9.27;;;;;;;-3.16;95.44;101316.31;5044152;28;20871;-76
2021/01/11 07:36:19;;;;;;;15.73;8.23;;;;;;;-3.16;95.39;101317.19;5046901;28;21049;-75
2021/01/11 07:38:45;;;;;;;12.33;7.37;;;;;;;-3.14;95.47;101310.47;5048547;28;20481;-76
2021/01/11 07:41:24;;;;;;;13.90;8.47;;;;;;;-3.12;95.47;101306.28;5048665;28;20454;-75
2021/01/11 07:43:50;;;;;;;11.17;6.87;;;;;;;-3.11;95.30;101304.63;5044740;28;20965;-75
2021/01/11 07:46:21;;;;;;;15.70;7.90;;;;;;;-3.06;95.53;101305.66;5045273;28;20457;-75
2021/01/11 07:48:47;;;;;;;16.43;8.37;;;;;;;-3.06;95.42;101301.44;5044991;28;20238;-75
2021/01/11 07:51:13;;;;;;;15.93;9.17;;;;;;;-3.02;95.28;101307.53;5045926;28;21065;-75
2021/01/11 07:53:39;;;;;;;16.93;9.00;;;;;;;-2.99;94.87;101305.13;5045373;28;20469;-75
2021/01/11 07:56:07;;;;;;;12.60;7.50;;;;;;;-2.96;94.60;101304.34;5047894;28;20207;-75
2021/01/11 07:58:34;;;;;;;13.23;7.70;;;;;;;-2.94;94.47;101301.03;5045306;28;20541;-75
2021/01/11 08:01:04;;;;;;;13.17;7.80;;;;;;;-2.93;93.56;101304.47;5047533;28;20450;-75
2021/01/11 08:03:30;;;;;;;14.93;7.50;;;;;;;-2.88;94.01;101308.09;5045580;28;20465;-76
2021/01/11 08:06:04;;;;;;;12.87;7.30;;;;;;;-2.88;93.30;101308.94;5046097;28;20450;-76
2021/01/11 08:08:34;;;;;;;13.90;7.77;;;;;;;-2.83;93.96;101305.69;5042095;28;20211;-75
2021/01/11 08:11:04;;;;;;;15.00;9.10;;;;;;;-2.80;93.53;101310.94;5044783;28;20474;-75
2021/01/11 08:13:30;;;;;;;15.93;7.97;;;;;;;-2.75;93.43;101306.88;5047512;28;20834;-76
2021/01/11 08:16:10;;;;;;;12.93;7.57;;;;;;;-2.74;93.34;101308.63;5043971;28;20206;-75
2021/01/11 08:18:36;;;;;;;10.80;6.80;;;;;;;-2.71;92.53;101301.97;5044764;28;21155;-75
2021/01/11 08:21:05;;;;;;;15.00;6.90;;;;;;;-2.68;91.89;101306.31;5041837;28;21109;-76
2021/01/11 08:23:31;;;;;;;15.13;8.87;;;;;;;-2.63;92.04;101312.47;5048333;28;20456;-76
2021/01/11 08:25:57;;;;;;;13.03;7.20;;;;;;;-2.60;92.32;101312.59;5045622;28;20582;-76
2021/01/11 08:28:23;;;;;;;13.07;7.20;;;;;;;-2.54;92.54;101309.41;5045552;28;20202;-75
2021/01/11 08:30:51;;;;;;;11.23;6.80;;;;;;;-2.54;91.85;101305.16;5044453;28;20587;-76
2021/01/11 08:33:18;;;;;;;13.73;7.60;;;;;;;-2.48;92.51;101313.06;5043462;28;20210;-76
2021/01/11 08:35:44;;;;;;;12.33;6.77;;;;;;;-2.46;91.63;101313.13;5041086;28;20452;-76
2021/01/11 08:38:12;;;;;;;13.53;7.17;;;;;;;-2.44;90.87;101318.28;5044058;28;20560;-75
2021/01/11 08:40:38;;;;;;;12.30;6.10;;;;;;;-2.40;91.59;101299.69;5043017;28;20680;-76
2021/01/11 08:43:11;;;;;;;13.77;7.87;;;;;;;-2.36;91.59;101301.53;5042964;28;20317;-75
2021/01/11 08:45:39;;;;;;;11.53;6.70;;;;;;;-2.32;91.35;101300.88;5043588;28;21033;-76
2021/01/11 08:48:06;;;;;;;8.93;5.63;;;;;;;-2.30;91.29;101299.25;5046222;28;20549;-76
2021/01/11 08:50:35;;;;;;;11.60;5.97;;;;;;;-2.25;90.47;101307.94;5045689;28;20498;-75
2021/01/11 08:53:18;;;;;;;10.73;6.13;;;;;;;-2.18;90.47;101296.25;5045077;28;20278;-75
2021/01/11 08:56:00;;;;;;;8.57;4.93;;;;;;;-2.13;89.81;101294.72;5043326;28;20196;-75
2021/01/11 08:58:26;;;;;;;12.17;5.77;;;;;;;-2.10;88.46;101298.25;5041943;28;20456;-76
2021/01/11 09:01:07;;;;;;;15.17;7.83;;;;;;;-2.01;89.02;101290.06;5044811;28;20207;-75
2021/01/11 09:03:41;;;;;;;15.93;7.50;;;;;;;-1.94;89.33;101291.16;5044275;28;20203;-75
2021/01/11 09:06:07;;;;;;;12.83;6.67;;;;;;;-1.89;88.43;101292.19;5041424;28;20212;-75
2021/01/11 09:08:33;;;;;;;12.10;6.07;;;;;;;-1.83;88.03;101294.06;5045057;28;20594;-75
2021/01/11 09:11:07;;;;;;;10.03;5.97;;;;;;;-1.76;88.03;101308.81;5043673;28;20215;-76
2021/01/11 09:13:33;;;;;;;10.67;5.63;;;;;;;-1.73;88.03;101308.94;5044924;28;20667;-76
2021/01/11 09:16:10;;;;;;;12.63;8.03;;;;;;;-1.70;87.87;101306.47;5042332;28;20214;-75
2021/01/11 09:18:36;;;;;;;14.30;7.67;;;;;;;-1.63;88.55;101317.81;5044935;28;20226;-76
2021/01/11 09:21:03;;;;;;;14.37;6.77;;;;;;;-1.59;88.63;101317.09;5045929;28;20204;-75
2021/01/11 09:23:30;;;;;;;12.43;6.67;;;;;;;-1.58;87.94;101326.50;5044722;28;20556;-75
2021/01/11 09:25:55;;;;;;;13.23;6.43;;;;;;;-1.51;88.29;101336.13;5046412;28;20195;-75
2021/01/11 09:28:21;;;;;;;10.60;5.43;;;;;;;-1.47;87.96;101337.09;5039626;28;20256;-75
2021/01/11 09:30:50;;;;;;;9.87;5.70;;;;;;;-1.48;87.43;101328.53;5045583;28;20235;-75
2021/01/11 09:33:16;;;;;;;11.30;5.83;;;;;;;-1.43;87.55;101321.03;5042389;28;20576;-75
2021/01/11 09:35:42;;;;;;;9.27;5.43;;;;;;;-1.37;87.80;101327.22;5044523;28;20211;-75
2021/01/11 09:38:08;;;;;;;10.80;6.10;;;;;;;-1.35;87.40;101329.84;5040076;28;20204;-76
2021/01/11 09:40:35;;;;;;;9.27;5.80;;;;;;;-1.33;87.18;101330.75;5046452;28;20215;-76
2021/01/11 09:43:01;;;;;;;9.60;5.40;;;;;;;-1.30;86.76;101335.09;5039428;28;20214;-76
2021/01/11 09:45:27;;;;;;;8.63;4.63;;;;;;;-1.30;86.47;101332.53;5045451;28;20191;-75
2021/01/11 09:47:53;;;;;;;7.83;4.40;;;;;;;-1.29;86.98;101326.63;5046448;28;20260;-75
2021/01/11 09:50:18;;;;;;;8.80;5.13;;;;;;;-1.24;87.68;101327.66;5043136;28;20249;-76
2021/01/11 09:52:44;;;;;;;7.47;4.73;;;;;;;-1.26;86.98;101331.84;5044759;28;20690;-75
2021/01/11 09:55:12;;;;;;;7.77;4.07;;;;;;;-1.25;86.54;101325.88;5041106;28;20694;-76
2021/01/11 09:57:39;;;;;;;7.73;4.43;;;;;;;-1.22;87.27;101326.84;5042301;28;20199;-76
2021/01/11 10:00:08;;;;;;;7.40;4.03;;;;;;;-1.20;86.93;101324.34;5045414;28;20725;-75
2021/01/11 10:02:37;;;;;;;6.80;4.10;;;;;;;-1.19;85.54;101326.97;5045586;28;20253;-76
2021/01/11 10:05:04;;;;;;;8.03;4.17;;;;;;;-1.14;85.57;101319.47;5039884;28;20487;-76
2021/01/11 10:07:30;;;;;;;8.30;4.60;;;;;;;-1.12;85.36;101328.06;5045370;28;20242;-75
2021/01/11 10:09:56;;;;;;;6.13;3.67;;;;;;;-1.09;84.82;101325.59;5041867;28;20833;-76
2021/01/11 10:12:21;;;;;;;5.93;3.63;;;;;;;-1.06;84.47;101320.56;5045816;28;20692;-75
2021/01/11 10:14:48;;;;;;;6.13;4.00;;;;;;;-1.03;84.88;101312.97;5044014;28;20792;-76
2021/01/11 10:17:14;;;;;;;6.83;4.03;;;;;;;-1.00;84.79;101315.66;5046539;28;20195;-76
2021/01/11 10:19:40;;;;;;;7.03;4.10;;;;;;;-0.97;84.19;101320.88;5043766;28;20223;-76
2021/01/11 10:22:06;;;;;;;7.93;4.00;;;;;;;-0.87;84.33;101318.59;5045867;28;20188;-76
2021/01/11 10:24:31;;;;;;;7.53;3.80;;;;;;;-0.82;83.72;101322.19;5040274;28;20204;-76
2021/01/11 10:26:57;;;;;;;7.07;3.97;;;;;;;-0.77;83.62;101318.94;5040931;28;20319;-76
2021/01/11 10:29:25;;;;;;;5.70;3.37;;;;;;;-0.73;83.62;101312.22;5045631;28;20631;-75
2021/01/11 10:31:53;;;;;;;6.20;4.30;;;;;;;-0.73;83.50;101311.34;5044401;28;20223;-75
2021/01/11 10:34:20;;;;;;;6.23;3.77;;;;;;;-0.72;84.00;101298.59;5037269;28;20199;-76
2021/01/11 10:36:47;;;;;;;6.27;3.80;;;;;;;-0.68;83.84;101308.09;5044768;28;20274;-76
2021/01/11 10:39:14;;;;;;;6.80;4.23;;;;;;;-0.65;84.03;101309.88;5049725;28;20357;-76
2021/01/11 10:41:40;;;;;;;6.37;3.53;;;;;;;-0.66;83.53;101297.91;5044476;28;20192;-76
2021/01/11 10:44:07;;;;;;;5.30;3.00;;;;;;;-0.66;83.59;101295.34;5048596;28;20203;-76
2021/01/11 10:46:34;;;;;;;7.03;3.80;;;;;;;-0.60;84.61;101285.28;5044626;28;20260;-76
2021/01/11 10:49:01;;;;;;;7.17;3.67;;;;;;;-0.57;84.06;101282.81;5075622;28;20233;-75
2021/01/11 10:51:27;;;;;;;7.13;3.83;;;;;;;-0.51;84.37;101279.56;5046028;28;20220;-75
2021/01/11 10:53:53;;;;;;;6.47;3.63;;;;;;;-0.47;85.00;101273.72;5048074;28;20195;-76
2021/01/11 10:56:19;;;;;;;5.27;3.20;;;;;;;-0.47;84.57;101263.47;5049270;28;20738;-76
2021/01/11 10:58:46;;;;;;;6.70;4.03;;;;;;;-0.49;83.37;101277.91;5040610;28;20600;-76
2021/01/11 11:01:13;;;;;;;7.70;3.83;;;;;;;-0.46;83.18;101275.44;5043854;28;20206;-76
2021/01/11 11:03:39;;;;;;;5.43;3.67;;;;;;;-0.42;84.72;101261.91;5042716;28;20207;-76
2021/01/11 11:06:06;;;;;;;5.60;3.60;;;;;;;-0.42;83.32;101261.91;5045289;28;20207;-76
2021/01/11 11:08:32;;;;;;;5.20;3.40;;;;;;;-0.42;83.66;101255.09;5046723;28;20271;-75
2021/01/11 11:10:58;;;;;;;6.50;3.87;;;;;;;-0.47;82.71;101266.88;5046814;28;20302;-76
2021/01/11 11:13:24;;;;;;;7.20;4.13;;;;;;;-0.43;83.22;101261.03;5047245;28;20211;-76
2021/01/11 11:15:50;;;;;;;5.40;3.73;;;;;;;-0.44;82.50;101264.44;5046356;28;20222;-76
2021/01/11 11:18:16;;;;;;;5.67;3.67;;;;;;;-0.39;83.72;101261.97;5046406;28;20208;-76
2021/01/11 11:20:45;;;;;;;5.73;3.47;;;;;;;-0.39;83.25;101262.88;5044232;28;20214;-76